createdAt,value
2022-09-28T00:03:58.852Z,12.89
2022-09-28T00:10:00.579Z,12.56
2022-09-28T00:16:07.428Z,12.57
2022-09-28T00:22:09.262Z,12.54
2022-09-28T00:28:10.952Z,12.61
2022-09-28T00:34:13.285Z,12.49
2022-09-28T00:40:15.128Z,12.62
2022-09-28T00:46:33.881Z,12.34
2022-09-28T00:53:06.507Z,12.16
2022-09-28T00:59:09.511Z,12.00
2022-09-28T01:05:12.053Z,12.32
2022-09-28T01:11:13.778Z,12.33
2022-09-28T01:17:28.806Z,12.17
2022-09-28T01:23:48.756Z,12.11
2022-09-28T01:30:08.719Z,12.16
2022-09-28T01:36:39.779Z,12.14
2022-09-28T01:42:44.369Z,11.47
2022-09-28T01:49:27.802Z,11.75
2022-09-28T01:55:37.508Z,12.16
2022-09-28T02:01:53.926Z,11.66
2022-09-28T02:08:04.448Z,11.76
2022-09-28T02:14:09.958Z,11.64
2022-09-28T02:20:11.910Z,11.93
2022-09-28T02:26:21.245Z,11.62
2022-09-28T02:32:26.319Z,11.11
2022-09-28T02:38:28.059Z,11.74
2022-09-28T02:44:54.048Z,11.51
2022-09-28T02:51:20.840Z,11.73
2022-09-28T02:57:46.990Z,11.62
2022-09-28T03:04:09.164Z,11.52
2022-09-28T03:10:16.820Z,11.37
2022-09-28T03:16:19.983Z,11.85
2022-09-28T03:22:21.831Z,11.50
2022-09-28T03:28:23.662Z,11.11
2022-09-28T03:34:25.403Z,11.45
2022-09-28T03:40:27.291Z,11.51
2022-09-28T03:46:29.102Z,11.01
2022-09-28T03:52:30.801Z,11.50
2022-09-28T03:58:32.808Z,11.45
2022-09-28T04:04:34.613Z,11.87
2022-09-28T04:10:36.461Z,11.89
2022-09-28T04:16:38.455Z,11.35
2022-09-28T04:22:40.350Z,11.54
2022-09-28T04:29:06.188Z,11.66
2022-09-28T04:35:11.658Z,11.82
2022-09-28T04:41:13.374Z,11.71
2022-09-28T04:47:15.106Z,12.12
2022-09-28T04:53:16.859Z,12.33
2022-09-28T04:59:18.768Z,12.34
2022-09-28T05:05:21.212Z,12.50
2022-09-28T05:11:23.318Z,12.45
2022-09-28T05:17:25.271Z,12.50
2022-09-28T05:23:27.196Z,12.48
2022-09-28T05:29:32.071Z,12.50
2022-09-28T05:35:35.119Z,12.37
2022-09-28T05:41:38.842Z,12.77
2022-09-28T05:47:43.031Z,12.57
2022-09-28T05:53:44.865Z,12.69
2022-09-28T05:59:46.716Z,12.61
2022-09-28T06:12:05.339Z,12.99
2022-09-28T06:18:11.153Z,13.24
2022-09-28T06:24:13.066Z,13.15
2022-09-28T06:30:14.919Z,13.47
2022-09-28T06:36:29.391Z,13.27
2022-09-28T06:42:31.282Z,13.72
2022-09-28T06:48:36.515Z,13.75
2022-09-28T06:54:38.359Z,13.96
2022-09-28T07:00:50.645Z,13.87
2022-09-28T07:19:28.012Z,15.55
2022-09-28T07:25:32.506Z,16.36
2022-09-28T07:31:35.350Z,16.31
2022-09-28T07:44:42.692Z,17.64
2022-09-28T07:50:57.582Z,17.54
2022-09-28T08:16:08.628Z,19.05
2022-09-28T08:29:01.083Z,19.94
2022-09-28T08:35:04.257Z,20.02
2022-09-28T08:47:50.714Z,20.34
2022-09-28T08:54:06.853Z,20.66
2022-09-28T11:08:51.232Z,21.39
2022-09-28T11:15:03.270Z,22.00
2022-09-28T11:27:34.354Z,21.91
2022-09-28T11:33:47.769Z,22.32
2022-09-28T11:40:14.237Z,22.68
2022-09-28T12:19:08.986Z,21.85
2022-09-28T12:25:24.762Z,20.56
2022-09-28T12:51:03.622Z,20.87
2022-09-28T13:10:41.025Z,20.76
2022-09-28T13:17:21.558Z,20.36
2022-09-28T13:29:51.951Z,19.73
2022-09-28T13:36:02.530Z,20.19
2022-09-28T13:42:09.834Z,20.11
2022-09-28T13:48:15.670Z,20.92
2022-09-28T15:05:54.487Z,19.65
2022-09-28T15:12:08.762Z,19.99
2022-09-28T16:35:21.839Z,16.68
2022-09-28T16:47:41.078Z,16.33
2022-09-28T16:54:02.198Z,16.80
2022-09-28T17:00:04.569Z,16.40
2022-09-28T17:06:06.688Z,15.29
2022-09-28T17:12:27.387Z,15.09
2022-09-28T17:18:32.060Z,15.69
2022-09-28T17:24:34.413Z,15.65
2022-09-28T17:30:36.673Z,15.47
2022-09-28T17:36:41.002Z,15.40
2022-09-28T17:42:42.993Z,15.47
2022-09-28T17:48:47.165Z,14.86
2022-09-28T17:54:48.917Z,13.83
2022-09-28T18:00:52.015Z,14.88
2022-09-28T18:06:53.874Z,14.98
2022-09-28T18:13:06.086Z,14.56
2022-09-28T18:19:07.975Z,13.20
2022-09-28T18:25:11.214Z,14.48
2022-09-28T18:31:16.193Z,13.26
2022-09-28T18:37:18.066Z,13.95
2022-09-28T18:43:19.887Z,14.35
2022-09-28T18:49:24.899Z,13.32
2022-09-28T18:55:27.102Z,13.38
2022-09-28T19:01:30.382Z,13.16
2022-09-28T19:07:33.838Z,13.53
2022-09-28T19:13:36.398Z,13.31
2022-09-28T19:19:38.472Z,13.05
2022-09-28T19:25:41.133Z,12.98
2022-09-28T19:31:43.691Z,12.76
2022-09-28T19:37:46.996Z,11.86
2022-09-28T19:43:48.759Z,12.57
2022-09-28T19:49:50.584Z,12.55
2022-09-28T19:55:57.455Z,12.82
2022-09-28T20:02:01.416Z,12.39
2022-09-28T20:14:09.784Z,11.79
2022-09-28T20:20:11.684Z,12.16
2022-09-28T20:26:14.871Z,12.18
2022-09-28T20:32:16.760Z,11.93
2022-09-28T20:38:18.602Z,11.93
2022-09-28T20:44:20.544Z,12.15
2022-09-28T20:50:23.663Z,11.40
2022-09-28T20:56:39.033Z,11.76
2022-09-28T21:02:40.937Z,11.37
2022-09-28T21:08:44.456Z,11.94
2022-09-28T21:14:46.292Z,11.35
2022-09-28T21:20:49.981Z,11.69
2022-09-28T21:26:51.822Z,11.54
2022-09-28T21:32:53.818Z,10.91
2022-09-28T21:38:56.228Z,11.18
2022-09-28T21:44:59.536Z,11.55
2022-09-28T21:51:03.959Z,10.68
2022-09-28T21:57:05.723Z,11.34
2022-09-28T22:03:07.680Z,11.15
2022-09-28T22:09:09.602Z,11.33
2022-09-28T22:15:11.517Z,10.35
2022-09-28T22:21:32.105Z,10.34
2022-09-28T22:27:33.874Z,10.81
2022-09-28T22:33:35.760Z,10.88
2022-09-28T22:39:38.032Z,10.97
2022-09-28T22:45:39.937Z,10.99
2022-09-28T22:51:41.731Z,11.08
2022-09-28T22:57:43.494Z,11.03
2022-09-28T23:03:45.961Z,10.76
2022-09-28T23:09:47.712Z,10.36
2022-09-28T23:15:57.605Z,10.78
2022-09-28T23:21:59.531Z,10.97
2022-09-28T23:28:01.526Z,10.86
2022-09-28T23:34:05.977Z,10.56
2022-09-28T23:40:07.932Z,10.71
2022-09-28T23:46:09.690Z,9.96
2022-09-28T23:52:11.694Z,10.43
2022-09-28T23:58:13.568Z,10.39
